Ship Status Report: callsign CFN5364

sailwx.info

Track history (hours):
 
Tides and Currents Weather Stations Pressure Air Temp Water Temp Dewpoint Dewpoint Depression Visibility Wind Speed Wind Dir Waves Ship Positions

Callsign CFN5364 (name unknown)

Last reported at 2018-Feb-15 18:00 UTC. Time now 2018-Feb-19 23:46 UTC.
Position N 54°18' W 130°21'.

Date/timePositionNaut miles runAvg speedWind from/ knotsBaromVisibWave heightAir tempDewpointWater temp
2018-Feb-15 18:00N 54°18' W 130°21'0 0.0
2018-Feb-15 15:03N 54°18' W 130°21'0 0.0
2018-Feb-15 14:36N 54°18' W 130°21'0 0.0
2018-Feb-15 12:29N 54°18' W 130°21'0 0.0
2018-Feb-15 11:59N 54°18' W 130°21'0 0.0
2018-Feb-15 11:28N 54°18' W 130°21'0 0.0
2018-Feb-15 10:58N 54°18' W 130°21'0 0.0
2018-Feb-15 07:15N 54°18' W 130°21'0 0.0
2018-Feb-15 06:56N 54°18' W 130°21'0 0.0
2018-Feb-15 06:20N 54°18' W 130°21'0 0.0
2018-Feb-15 03:34N 54°18' W 130°21'0 0.0
2018-Feb-15 03:19N 54°18' W 130°21'0 0.0
2018-Feb-15 02:52N 54°18' W 130°21'0 0.0
2018-Feb-14 23:29N 54°18' W 130°21'0 0.0
2018-Feb-14 22:59N 54°18' W 130°21'0 0.0
2018-Feb-14 22:29N 54°18' W 130°21'0 0.0
2018-Feb-14 17:51N 54°18' W 130°21'0 0.0
2018-Feb-14 17:27N 54°18' W 130°21'0 0.0
2018-Feb-14 16:50N 54°18' W 130°21'0 0.0
2018-Feb-14 16:26N 54°18' W 130°21'0 0.0
2018-Feb-14 15:56N 54°18' W 130°21'0 0.0
2018-Feb-14 15:26N 54°18' W 130°21'0 0.0
2018-Feb-14 14:56N 54°18' W 130°21'0 0.0
2018-Feb-14 14:01N 54°18' W 130°21'0 0.0
2018-Feb-14 13:55N 54°18' W 130°21'0 0.0
2018-Feb-14 13:25N 54°18' W 130°21'0 0.0
2018-Feb-14 12:55N 54°18' W 130°21'0 0.0
2018-Feb-14 12:24N 54°18' W 130°21'0 0.0
2018-Feb-14 12:00N 54°18' W 130°21'0 0.0
2018-Feb-14 11:30N 54°18' W 130°21'0 0.0
2018-Feb-14 11:00N 54°18' W 130°21'0 0.0
2018-Feb-14 10:30N 54°18' W 130°21'0 0.0
2018-Feb-14 09:59N 54°18' W 130°21'0 0.0
2018-Feb-14 08:47N 54°18' W 130°21'0 0.0
2018-Feb-14 08:29N 54°18' W 130°21'0 0.0
2018-Feb-14 07:53N 54°18' W 130°21'0 0.0
2018-Feb-14 07:28N 54°18' W 130°21'0 0.0
2018-Feb-14 06:58N 54°18' W 130°21'0 0.0
2018-Feb-14 06:28N 54°18' W 130°21'0 0.0
2018-Feb-14 05:58N 54°18' W 130°21'0 0.0
2018-Feb-14 05:28N 54°18' W 130°21'0 0.0
2018-Feb-14 04:57N 54°18' W 130°21'0 0.0
2018-Feb-14 04:27N 54°18' W 130°21'0 0.0
2018-Feb-14 03:54N 54°18' W 130°21'0 0.0
2018-Feb-14 03:30N 54°18' W 130°21'0 0.0
2018-Feb-14 02:59N 54°18' W 130°21'0 0.0
2018-Feb-14 01:14N 54°18' W 130°21'0 0.1
2018-Feb-14 00:54N 54°18' W 130°21'0 0.1
2018-Feb-14 00:30N 54°18' W 130°21'4 8.5
2018-Feb-13 23:59N 54°14' W 130°21'510.6
2018-Feb-13 23:30N 54°09' W 130°23'815.1
2018-Feb-13 23:01N 54°04' W 130°33'613.0
2018-Feb-13 22:30N 54°03' W 130°44'714.2
2018-Feb-13 22:00N 53°58' W 130°51'815.1
2018-Feb-13 21:28N 53°53' W 131°02'715.1
2018-Feb-13 21:00N 53°48' W 131°11'6 0.2
2018-Feb-12 11:05N 53°44' W 131°19'318.3
2018-Feb-12 10:56N 53°46' W 131°15'818.1
2018-Feb-12 10:30N 53°51' W 131°06'918.2
2018-Feb-12 10:00N 53°57' W 130°54'714.1
2018-Feb-12 09:30N 54°02' W 130°46'3 6.4
2018-Feb-12 09:00N 54°04' W 130°42'4 7.6
2018-Feb-12 08:30N 54°03' W 130°35'3 6.5
2018-Feb-12 08:00N 54°05' W 130°32'3 6.4
2018-Feb-12 07:30N 54°07' W 130°28'3 5.3
2018-Feb-12 07:00N 54°09' W 130°24'3 5.5
2018-Feb-12 06:30N 54°11' W 130°21'612.4
2018-Feb-12 06:00N 54°17' W 130°22'1 1.6
2018-Feb-12 05:25N 54°18' W 130°21'0 0.0
2018-Feb-12 05:00N 54°18' W 130°21'0 0.0
2018-Feb-12 04:30N 54°18' W 130°21'0 0.0
2018-Feb-12 02:54N 54°18' W 130°21'0 0.0
2018-Feb-12 02:29N 54°18' W 130°21'0 0.0
2018-Feb-12 01:53N 54°18' W 130°21'0 0.0
2018-Feb-12 01:29N 54°18' W 130°21'0 0.0
2018-Feb-12 00:47N 54°18' W 130°21'0 0.0
2018-Feb-12 00:16N 54°18' W 130°21'0 0.0
2018-Feb-11 23:58N 54°18' W 130°21'0 0.0
2018-Feb-11 23:28N 54°18' W 130°21'0 0.0
2018-Feb-11 21:21N 54°18' W 130°21'0 0.0
2018-Feb-11 20:57N 54°18' W 130°21'0 0.0
2018-Feb-11 20:27N 54°18' W 130°21'0 0.0
2018-Feb-11 19:57N 54°18' W 130°21'0 0.0
2018-Feb-11 19:26N 54°18' W 130°21'0 0.0
2018-Feb-11 18:56N 54°18' W 130°21'0 0.0
2018-Feb-11 14:14N 54°18' W 130°21'0 0.2
2018-Feb-11 14:00N 54°18' W 130°21'4 8.3
2018-Feb-11 13:30N 54°14' W 130°21'611.4
2018-Feb-11 13:00N 54°08' W 130°24'714.6
2018-Feb-11 12:30N 54°04' W 130°33'713.5
2018-Feb-11 12:00N 54°03' W 130°45'815.2
2018-Feb-11 11:31N 53°57' W 130°53'714.9
2018-Feb-11 11:01N 53°52' W 131°03'814.1
2018-Feb-11 10:28N 53°47' W 131°12'9 0.8
2018-Feb-10 22:22N 53°41' W 131°24'718.3
2018-Feb-10 22:00N 53°45' W 131°16'918.8
2018-Feb-10 21:30N 53°52' W 131°04'918.7
2018-Feb-10 21:00N 53°58' W 130°52'916.9
2018-Feb-10 20:30N 54°04' W 130°42'815.6
2018-Feb-10 20:00N 54°06' W 130°30'917.3
2018-Feb-10 19:30N 54°13' W 130°21'4 8.4
2018-Feb-10 19:00N 54°18' W 130°22'0 0.1
2018-Feb-10 15:55N 54°18' W 130°21'0 0.0
2018-Feb-10 15:19N 54°18' W 130°21'0 0.0
2018-Feb-10 14:52N 54°18' W 130°21'1 3.8
2018-Feb-10 14:30N 54°17' W 130°22'815.8
2018-Feb-10 14:00N 54°09' W 130°21'611.8
2018-Feb-10 13:31N 54°04' W 130°16'713.4
2018-Feb-10 13:00N 53°57' W 130°12'714.9
2018-Feb-10 12:30N 53°52' W 130°03'1016.6
2018-Feb-10 11:55N 53°45' W 129°52'9212.0
2018-Feb-10 04:13N 52°28' W 128°27'417.8
2018-Feb-10 04:00N 52°25' W 128°30'816.4
2018-Feb-10 03:30N 52°17' W 128°27'815.0
2018-Feb-10 03:00N 52°14' W 128°15'611.8
2018-Feb-10 02:28N 52°11' W 128°07'3 1.6
2018-Feb-10 00:45N 52°08' W 128°09'0 0.9
2018-Feb-10 00:30N 52°08' W 128°08'711.9
2018-Feb-09 23:56N 52°05' W 127°59'613.9
2018-Feb-09 23:30N 51°59' W 127°56'815.6
2018-Feb-09 23:01N 51°51' W 127°57'418.3
2018-Feb-09 22:46N 51°47' W 127°56'517.9
2018-Feb-09 22:31N 51°42' W 127°55'5716.2
2018-Feb-09 19:00N 50°47' W 127°32'235 9.4
2018-Feb-08 18:00N 54°18' W 130°22'0 0.0
2018-Feb-07 00:50N 54°18' W 130°21'0 0.8
2018-Feb-07 00:30N 54°18' W 130°22'13 8.9
2018-Feb-06 23:00N 54°06' W 130°31'610.6
2018-Feb-06 22:29N 54°03' W 130°39'4 8.3
2018-Feb-06 22:00N 54°02' W 130°46'714.3
2018-Feb-06 21:30N 53°57' W 130°54'8 0.8
2018-Feb-06 10:14N 53°51' W 131°05'312.2
2018-Feb-06 10:00N 53°53' W 131°01'612.2
2018-Feb-06 09:30N 53°57' W 130°53'611.4
2018-Feb-06 09:00N 54°01' W 130°46'4 8.3
2018-Feb-06 08:30N 54°04' W 130°41'4 8.1
2018-Feb-06 08:00N 54°03' W 130°35'4 8.1
2018-Feb-06 07:30N 54°06' W 130°30'4 8.0
2018-Feb-06 07:00N 54°08' W 130°25'4 7.8
2018-Feb-06 06:30N 54°12' W 130°21'6 0.9
2018-Feb-06 00:23N 54°17' W 130°22'614.8
2018-Feb-06 00:00N 54°11' W 130°21'714.5
2018-Feb-05 23:30N 54°06' W 130°30'813.0
2018-Feb-05 22:54N 54°04' W 130°42'1414.9
2018-Feb-05 21:58N 53°54' W 130°59'715.4
2018-Feb-05 21:30N 53°49' W 131°08'  
Track history (hours):
 
Tides and Currents Weather Stations Pressure Air Temp Water Temp Dewpoint Dewpoint Depression Visibility Wind Speed Wind Dir Waves Ship Positions

Callsign CFN5364 (name unknown)

Last reported at 2018-Feb-15 18:00 UTC. Time now 2018-Feb-19 23:46 UTC.
Position N 54°18' W 130°21'.

Date/timePositionNaut miles runAvg speedWind from/ knotsBaromVisibWave heightAir tempDewpointWater temp
2018-Feb-15 18:00N 54°18' W 130°21'0 0.0
2018-Feb-15 15:03N 54°18' W 130°21'0 0.0
2018-Feb-15 14:36N 54°18' W 130°21'0 0.0
2018-Feb-15 12:29N 54°18' W 130°21'0 0.0
2018-Feb-15 11:59N 54°18' W 130°21'0 0.0
2018-Feb-15 11:28N 54°18' W 130°21'0 0.0
2018-Feb-15 10:58N 54°18' W 130°21'0 0.0
2018-Feb-15 07:15N 54°18' W 130°21'0 0.0
2018-Feb-15 06:56N 54°18' W 130°21'0 0.0
2018-Feb-15 06:20N 54°18' W 130°21'0 0.0
2018-Feb-15 03:34N 54°18' W 130°21'0 0.0
2018-Feb-15 03:19N 54°18' W 130°21'0 0.0
2018-Feb-15 02:52N 54°18' W 130°21'0 0.0
2018-Feb-14 23:29N 54°18' W 130°21'0 0.0
2018-Feb-14 22:59N 54°18' W 130°21'0 0.0
2018-Feb-14 22:29N 54°18' W 130°21'0 0.0
2018-Feb-14 17:51N 54°18' W 130°21'0 0.0
2018-Feb-14 17:27N 54°18' W 130°21'0 0.0
2018-Feb-14 16:50N 54°18' W 130°21'0 0.0
2018-Feb-14 16:26N 54°18' W 130°21'0 0.0
2018-Feb-14 15:56N 54°18' W 130°21'0 0.0
2018-Feb-14 15:26N 54°18' W 130°21'0 0.0
2018-Feb-14 14:56N 54°18' W 130°21'0 0.0
2018-Feb-14 14:01N 54°18' W 130°21'0 0.0
2018-Feb-14 13:55N 54°18' W 130°21'0 0.0
2018-Feb-14 13:25N 54°18' W 130°21'0 0.0
2018-Feb-14 12:55N 54°18' W 130°21'0 0.0
2018-Feb-14 12:24N 54°18' W 130°21'0 0.0
2018-Feb-14 12:00N 54°18' W 130°21'0 0.0
2018-Feb-14 11:30N 54°18' W 130°21'0 0.0
2018-Feb-14 11:00N 54°18' W 130°21'0 0.0
2018-Feb-14 10:30N 54°18' W 130°21'0 0.0
2018-Feb-14 09:59N 54°18' W 130°21'0 0.0
2018-Feb-14 08:47N 54°18' W 130°21'0 0.0
2018-Feb-14 08:29N 54°18' W 130°21'0 0.0
2018-Feb-14 07:53N 54°18' W 130°21'0 0.0
2018-Feb-14 07:28N 54°18' W 130°21'0 0.0
2018-Feb-14 06:58N 54°18' W 130°21'0 0.0
2018-Feb-14 06:28N 54°18' W 130°21'0 0.0
2018-Feb-14 05:58N 54°18' W 130°21'0 0.0
2018-Feb-14 05:28N 54°18' W 130°21'0 0.0
2018-Feb-14 04:57N 54°18' W 130°21'0 0.0
2018-Feb-14 04:27N 54°18' W 130°21'0 0.0
2018-Feb-14 03:54N 54°18' W 130°21'0 0.0
2018-Feb-14 03:30N 54°18' W 130°21'0 0.0
2018-Feb-14 02:59N 54°18' W 130°21'0 0.0
2018-Feb-14 01:14N 54°18' W 130°21'0 0.1
2018-Feb-14 00:54N 54°18' W 130°21'0 0.1
2018-Feb-14 00:30N 54°18' W 130°21'4 8.5
2018-Feb-13 23:59N 54°14' W 130°21'510.6
2018-Feb-13 23:30N 54°09' W 130°23'815.1
2018-Feb-13 23:01N 54°04' W 130°33'613.0
2018-Feb-13 22:30N 54°03' W 130°44'714.2
2018-Feb-13 22:00N 53°58' W 130°51'815.1
2018-Feb-13 21:28N 53°53' W 131°02'715.1
2018-Feb-13 21:00N 53°48' W 131°11'6 0.2
2018-Feb-12 11:05N 53°44' W 131°19'318.3
2018-Feb-12 10:56N 53°46' W 131°15'818.1
2018-Feb-12 10:30N 53°51' W 131°06'918.2
2018-Feb-12 10:00N 53°57' W 130°54'714.1
2018-Feb-12 09:30N 54°02' W 130°46'3 6.4
2018-Feb-12 09:00N 54°04' W 130°42'4 7.6
2018-Feb-12 08:30N 54°03' W 130°35'3 6.5
2018-Feb-12 08:00N 54°05' W 130°32'3 6.4
2018-Feb-12 07:30N 54°07' W 130°28'3 5.3
2018-Feb-12 07:00N 54°09' W 130°24'3 5.5
2018-Feb-12 06:30N 54°11' W 130°21'612.4
2018-Feb-12 06:00N 54°17' W 130°22'1 1.6
2018-Feb-12 05:25N 54°18' W 130°21'0 0.0
2018-Feb-12 05:00N 54°18' W 130°21'0 0.0
2018-Feb-12 04:30N 54°18' W 130°21'0 0.0
2018-Feb-12 02:54N 54°18' W 130°21'0 0.0
2018-Feb-12 02:29N 54°18' W 130°21'0 0.0
2018-Feb-12 01:53N 54°18' W 130°21'0 0.0
2018-Feb-12 01:29N 54°18' W 130°21'0 0.0
2018-Feb-12 00:47N 54°18' W 130°21'0 0.0
2018-Feb-12 00:16N 54°18' W 130°21'0 0.0
2018-Feb-11 23:58N 54°18' W 130°21'0 0.0
2018-Feb-11 23:28N 54°18' W 130°21'0 0.0
2018-Feb-11 21:21N 54°18' W 130°21'0 0.0
2018-Feb-11 20:57N 54°18' W 130°21'0 0.0
2018-Feb-11 20:27N 54°18' W 130°21'0 0.0
2018-Feb-11 19:57N 54°18' W 130°21'0 0.0
2018-Feb-11 19:26N 54°18' W 130°21'0 0.0
2018-Feb-11 18:56N 54°18' W 130°21'0 0.0
2018-Feb-11 14:14N 54°18' W 130°21'0 0.2
2018-Feb-11 14:00N 54°18' W 130°21'4 8.3
2018-Feb-11 13:30N 54°14' W 130°21'611.4
2018-Feb-11 13:00N 54°08' W 130°24'714.6
2018-Feb-11 12:30N 54°04' W 130°33'713.5
2018-Feb-11 12:00N 54°03' W 130°45'815.2
2018-Feb-11 11:31N 53°57' W 130°53'714.9
2018-Feb-11 11:01N 53°52' W 131°03'814.1
2018-Feb-11 10:28N 53°47' W 131°12'9 0.8
2018-Feb-10 22:22N 53°41' W 131°24'718.3
2018-Feb-10 22:00N 53°45' W 131°16'918.8
2018-Feb-10 21:30N 53°52' W 131°04'918.7
2018-Feb-10 21:00N 53°58' W 130°52'916.9
2018-Feb-10 20:30N 54°04' W 130°42'815.6
2018-Feb-10 20:00N 54°06' W 130°30'917.3
2018-Feb-10 19:30N 54°13' W 130°21'4 8.4
2018-Feb-10 19:00N 54°18' W 130°22'0 0.1
2018-Feb-10 15:55N 54°18' W 130°21'0 0.0
2018-Feb-10 15:19N 54°18' W 130°21'0 0.0
2018-Feb-10 14:52N 54°18' W 130°21'1 3.8
2018-Feb-10 14:30N 54°17' W 130°22'815.8
2018-Feb-10 14:00N 54°09' W 130°21'611.8
2018-Feb-10 13:31N 54°04' W 130°16'713.4
2018-Feb-10 13:00N 53°57' W 130°12'714.9
2018-Feb-10 12:30N 53°52' W 130°03'1016.6
2018-Feb-10 11:55N 53°45' W 129°52'9212.0
2018-Feb-10 04:13N 52°28' W 128°27'417.8
2018-Feb-10 04:00N 52°25' W 128°30'816.4
2018-Feb-10 03:30N 52°17' W 128°27'815.0
2018-Feb-10 03:00N 52°14' W 128°15'611.8
2018-Feb-10 02:28N 52°11' W 128°07'3 1.6
2018-Feb-10 00:45N 52°08' W 128°09'0 0.9
2018-Feb-10 00:30N 52°08' W 128°08'711.9
2018-Feb-09 23:56N 52°05' W 127°59'613.9
2018-Feb-09 23:30N 51°59' W 127°56'815.6
2018-Feb-09 23:01N 51°51' W 127°57'418.3
2018-Feb-09 22:46N 51°47' W 127°56'517.9
2018-Feb-09 22:31N 51°42' W 127°55'5716.2
2018-Feb-09 19:00N 50°47' W 127°32'235 9.4
2018-Feb-08 18:00N 54°18' W 130°22'0 0.0
2018-Feb-07 00:50N 54°18' W 130°21'0 0.8
2018-Feb-07 00:30N 54°18' W 130°22'13 8.9
2018-Feb-06 23:00N 54°06' W 130°31'610.6
2018-Feb-06 22:29N 54°03' W 130°39'4 8.3
2018-Feb-06 22:00N 54°02' W 130°46'714.3
2018-Feb-06 21:30N 53°57' W 130°54'8 0.8
2018-Feb-06 10:14N 53°51' W 131°05'312.2
2018-Feb-06 10:00N 53°53' W 131°01'612.2
2018-Feb-06 09:30N 53°57' W 130°53'611.4
2018-Feb-06 09:00N 54°01' W 130°46'4 8.3
2018-Feb-06 08:30N 54°04' W 130°41'4 8.1
2018-Feb-06 08:00N 54°03' W 130°35'4 8.1
2018-Feb-06 07:30N 54°06' W 130°30'4 8.0
2018-Feb-06 07:00N 54°08' W 130°25'4 7.8
2018-Feb-06 06:30N 54°12' W 130°21'6 0.9
2018-Feb-06 00:23N 54°17' W 130°22'614.8
2018-Feb-06 00:00N 54°11' W 130°21'714.5
2018-Feb-05 23:30N 54°06' W 130°30'813.0
2018-Feb-05 22:54N 54°04' W 130°42'1414.9
2018-Feb-05 21:58N 53°54' W 130°59'715.4
2018-Feb-05 21:30N 53°49' W 131°08'  

Dump ship's entire track history